Time;durP1;ratioP1;P1;durP2;ratioP2;P2;SDS_P1;SDS_P2;PMS_P1;PMS_P2;Temp;Humidity;BMP_temperature;BMP_pressure;BME280_temperature;BME280_humidity;BME280_pressure;Samples;Min_cycle;Max_cycle;Signal;HPM_P1;HPM_P2
2022/05/11 00:01:29;;;;;;;12.48;6.68;;;;;;;;;;5008745;28;20038;-82
2022/05/11 00:03:55;;;;;;;14.20;6.93;;;;;;;;;;5008702;28;20046;-82
2022/05/11 00:06:21;;;;;;;9.15;6.35;;;;;;;;;;5023164;28;20049;-81
2022/05/11 00:08:47;;;;;;;13.63;7.25;;;;;;;;;;5008939;28;20038;-82
2022/05/11 00:11:14;;;;;;;12.57;6.93;;;;;;;;;;5008851;28;20402;-82
2022/05/11 00:13:40;;;;;;;14.07;6.70;;;;;;;;;;4993053;28;20049;-82
2022/05/11 00:16:07;;;;;;;13.18;6.90;;;;;;;;;;5008922;28;20482;-82
2022/05/11 00:18:33;;;;;;;15.05;6.93;;;;;;;;;;5009442;28;20049;-82
2022/05/11 00:20:59;;;;;;;14.70;6.57;;;;;;;;;;5009281;28;20449;-82
2022/05/11 00:23:25;;;;;;;11.98;6.50;;;;;;;;;;4991026;28;20141;-82
2022/05/11 00:25:51;;;;;;;13.05;6.93;;;;;;;;;;5023594;28;20041;-82
2022/05/11 00:28:17;;;;;;;12.27;6.65;;;;;;;;;;5008609;28;20038;-82
2022/05/11 00:30:43;;;;;;;12.55;6.53;;;;;;;;;;5008737;28;20100;-82
2022/05/11 00:33:12;;;;;;;12.23;6.22;;;;;;;;;;5008801;28;20488;-82
2022/05/11 00:35:38;;;;;;;13.50;7.03;;;;;;;;;;5009855;28;20049;-82
2022/05/11 00:38:04;;;;;;;11.07;6.03;;;;;;;;;;5009040;28;20478;-82
2022/05/11 00:40:31;;;;;;;9.55;6.15;;;;;;;;;;5009012;28;21022;-82
2022/05/11 00:42:58;;;;;;;13.63;6.57;;;;;;;;;;5009497;28;20042;-82
2022/05/11 00:45:24;;;;;;;8.98;5.40;;;;;;;;;;5009271;28;20049;-81
2022/05/11 00:47:56;;;;;;;9.70;5.95;;;;;;;;;;5009345;28;20092;-81
2022/05/11 00:50:25;;;;;;;9.82;5.75;;;;;;;;;;5011463;28;20076;-81
2022/05/11 00:52:57;;;;;;;11.93;6.65;;;;;;;;;;4998984;28;20046;-81
2022/05/11 00:55:36;;;;;;;9.70;5.45;;;;;;;;;;5010636;28;20038;-80
2022/05/11 00:58:05;;;;;;;8.77;5.68;;;;;;;;;;5008898;28;20042;-81
2022/05/11 01:00:31;;;;;;;10.98;5.43;;;;;;;;;;5010087;28;20117;-82
2022/05/11 01:03:02;;;;;;;11.10;5.97;;;;;;;;;;5009080;28;20045;-82
2022/05/11 01:05:28;;;;;;;11.80;5.63;;;;;;;;;;5006076;28;20045;-82
2022/05/11 01:07:55;;;;;;;9.38;5.72;;;;;;;;;;5008208;28;20405;-81
2022/05/11 01:10:23;;;;;;;12.23;6.05;;;;;;;;;;5007342;28;20053;-82
2022/05/11 01:12:51;;;;;;;11.68;6.10;;;;;;;;;;4992168;28;20394;-82
2022/05/11 01:15:18;;;;;;;9.05;5.75;;;;;;;;;;5009687;28;20481;-81
2022/05/11 01:17:44;;;;;;;10.93;5.75;;;;;;;;;;5009190;28;20478;-82
2022/05/11 01:20:14;;;;;;;9.35;6.00;;;;;;;;;;5021797;28;20070;-82
2022/05/11 01:22:43;;;;;;;9.00;5.75;;;;;;;;;;4992029;28;20406;-82
2022/05/11 01:25:10;;;;;;;12.13;6.78;;;;;;;;;;5013222;28;20053;-81
2022/05/11 01:27:39;;;;;;;11.48;5.57;;;;;;;;;;5004301;28;20412;-82
2022/05/11 01:30:24;;;;;;;11.55;5.97;;;;;;;;;;5007484;28;20494;-82
2022/05/11 01:32:51;;;;;;;9.35;5.60;;;;;;;;;;5007807;28;20159;-82
2022/05/11 01:35:36;;;;;;;9.30;5.40;;;;;;;;;;5005933;28;20101;-82
2022/05/11 01:38:41;;;;;;;9.90;6.63;;;;;;;;;;5005493;28;20046;-82
2022/05/11 01:41:08;;;;;;;11.30;5.10;;;;;;;;;;4967975;28;20050;-82
2022/05/11 01:43:36;;;;;;;8.38;5.07;;;;;;;;;;4970475;28;20077;-82
2022/05/11 01:46:03;;;;;;;11.23;5.07;;;;;;;;;;4987410;28;20053;-82
2022/05/11 01:48:29;;;;;;;11.10;5.50;;;;;;;;;;5006903;28;20037;-82
2022/05/11 01:50:55;;;;;;;10.80;5.47;;;;;;;;;;5007346;28;20041;-82
2022/05/11 01:53:22;;;;;;;9.38;5.00;;;;;;;;;;5007616;28;20049;-82
2022/05/11 01:55:48;;;;;;;11.52;5.18;;;;;;;;;;4991022;28;20045;-82
2022/05/11 01:58:14;;;;;;;10.73;5.30;;;;;;;;;;5006683;28;20041;-82
2022/05/11 02:00:42;;;;;;;9.73;4.63;;;;;;;;;;4990310;28;20132;-82
2022/05/11 02:03:08;;;;;;;12.10;5.35;;;;;;;;;;5004368;28;20148;-82
2022/05/11 02:08:19;;;;;;;9.45;5.28;;;;;;;;;;5004826;28;20041;-81
2022/05/11 02:10:46;;;;;;;10.98;4.97;;;;;;;;;;5007269;28;20643;-81
2022/05/11 02:13:12;;;;;;;9.93;5.10;;;;;;;;;;4990707;28;20092;-82
2022/05/11 02:15:38;;;;;;;11.18;4.90;;;;;;;;;;4994565;28;20037;-81
2022/05/11 02:18:04;;;;;;;9.68;4.97;;;;;;;;;;5010688;28;20042;-82
2022/05/11 02:20:31;;;;;;;11.38;4.78;;;;;;;;;;5010672;28;20089;-82
2022/05/11 02:22:57;;;;;;;10.23;4.72;;;;;;;;;;4994765;28;20556;-81
2022/05/11 02:25:23;;;;;;;9.82;4.68;;;;;;;;;;5010713;28;20125;-81
2022/05/11 02:27:51;;;;;;;6.80;4.05;;;;;;;;;;5010839;28;20038;-81
2022/05/11 02:30:20;;;;;;;8.13;4.70;;;;;;;;;;5010619;28;20092;-81
2022/05/11 02:32:46;;;;;;;8.65;4.35;;;;;;;;;;5010390;28;20092;-81
2022/05/11 02:35:12;;;;;;;10.77;4.90;;;;;;;;;;5010792;28;20456;-82
2022/05/11 02:37:43;;;;;;;9.18;4.75;;;;;;;;;;5010916;28;20042;-81
2022/05/11 02:40:10;;;;;;;9.80;5.00;;;;;;;;;;5011621;28;20152;-81
2022/05/11 02:42:36;;;;;;;11.13;5.00;;;;;;;;;;4994004;28;20469;-81
2022/05/11 02:45:02;;;;;;;12.57;5.47;;;;;;;;;;5010407;28;20132;-82
2022/05/11 02:47:28;;;;;;;8.88;4.85;;;;;;;;;;5010908;28;20474;-81
2022/05/11 02:49:55;;;;;;;7.45;4.82;;;;;;;;;;4978060;28;20050;-82
2022/05/11 02:52:21;;;;;;;10.18;4.93;;;;;;;;;;4976968;28;20046;-81
2022/05/11 02:54:48;;;;;;;11.10;4.95;;;;;;;;;;5011560;28;20453;-81
2022/05/11 02:57:16;;;;;;;9.38;5.00;;;;;;;;;;5010160;28;20050;-81
2022/05/11 02:59:43;;;;;;;8.15;4.82;;;;;;;;;;4991833;28;20042;-82
2022/05/11 03:02:09;;;;;;;7.45;3.83;;;;;;;;;;5011252;28;20056;-82
2022/05/11 03:04:35;;;;;;;9.48;4.95;;;;;;;;;;5010364;28;20076;-82
2022/05/11 03:07:01;;;;;;;11.25;4.65;;;;;;;;;;5010569;28;20046;-81
2022/05/11 03:09:27;;;;;;;9.93;4.90;;;;;;;;;;4992861;28;20333;-82
2022/05/11 03:11:54;;;;;;;9.75;4.80;;;;;;;;;;5009779;28;20102;-82
2022/05/11 03:14:20;;;;;;;9.75;5.55;;;;;;;;;;5010085;28;20042;-82
2022/05/11 03:16:46;;;;;;;10.10;4.70;;;;;;;;;;5010057;28;20042;-82
2022/05/11 03:19:12;;;;;;;7.70;4.57;;;;;;;;;;5009968;28;20430;-82
2022/05/11 03:21:38;;;;;;;12.18;5.32;;;;;;;;;;4993587;28;20104;-82
2022/05/11 03:24:04;;;;;;;10.82;4.50;;;;;;;;;;4994281;28;20042;-82
2022/05/11 03:26:30;;;;;;;8.60;4.60;;;;;;;;;;5010650;28;20049;-82
2022/05/11 03:28:57;;;;;;;11.32;4.43;;;;;;;;;;5009946;28;20038;-82
2022/05/11 03:31:23;;;;;;;9.70;4.28;;;;;;;;;;5009125;28;20038;-82
2022/05/11 03:36:34;;;;;;;9.55;4.32;;;;;;;;;;5009401;28;20046;-82
2022/05/11 03:39:00;;;;;;;11.43;4.45;;;;;;;;;;5009444;28;20591;-81
2022/05/11 03:41:26;;;;;;;9.73;4.35;;;;;;;;;;5009299;28;20397;-82
2022/05/11 03:43:52;;;;;;;8.43;3.88;;;;;;;;;;5009420;28;20550;-82
2022/05/11 03:46:18;;;;;;;9.15;4.28;;;;;;;;;;5009223;28;20046;-81
2022/05/11 03:48:44;;;;;;;9.85;4.63;;;;;;;;;;5009903;28;20041;-82
2022/05/11 03:51:12;;;;;;;9.95;3.63;;;;;;;;;;4990652;28;20038;-82
2022/05/11 03:53:38;;;;;;;8.88;3.67;;;;;;;;;;4989831;28;20050;-82
2022/05/11 03:56:04;;;;;;;11.93;4.30;;;;;;;;;;4973702;28;20537;-82
2022/05/11 03:58:30;;;;;;;9.32;3.90;;;;;;;;;;4973843;28;20505;-81
2022/05/11 04:00:57;;;;;;;9.88;3.92;;;;;;;;;;4989707;28;20535;-82
2022/05/11 04:03:23;;;;;;;10.13;4.32;;;;;;;;;;4989027;28;20050;-85
2022/05/11 04:05:49;;;;;;;10.98;4.15;;;;;;;;;;4989039;28;20038;-84
2022/05/11 04:08:15;;;;;;;11.38;4.13;;;;;;;;;;4988987;28;20035;-84
2022/05/11 04:10:41;;;;;;;11.48;4.32;;;;;;;;;;4990217;28;20397;-83
2022/05/11 04:13:08;;;;;;;8.18;3.72;;;;;;;;;;4973359;28;20169;-84
2022/05/11 04:15:34;;;;;;;12.15;4.40;;;;;;;;;;4989671;28;20046;-84
2022/05/11 04:18:00;;;;;;;8.55;4.45;;;;;;;;;;4988203;28;20403;-84
2022/05/11 04:20:26;;;;;;;10.55;4.45;;;;;;;;;;4989140;28;20042;-84
2022/05/11 04:22:52;;;;;;;10.65;3.95;;;;;;;;;;4989536;28;20042;-84
2022/05/11 04:25:18;;;;;;;11.10;4.25;;;;;;;;;;4988760;28;20092;-84
2022/05/11 04:27:46;;;;;;;9.57;4.43;;;;;;;;;;4991423;28;20414;-84
2022/05/11 04:30:13;;;;;;;12.15;4.72;;;;;;;;;;4990888;28;20089;-83
2022/05/11 04:32:39;;;;;;;12.80;4.80;;;;;;;;;;4991213;28;20042;-81
2022/05/11 04:35:06;;;;;;;12.52;5.25;;;;;;;;;;4991045;28;20073;-83
2022/05/11 04:37:32;;;;;;;11.55;4.85;;;;;;;;;;4988905;28;20049;-83
2022/05/11 04:39:58;;;;;;;13.23;5.05;;;;;;;;;;4990750;28;20038;-83
2022/05/11 04:42:24;;;;;;;12.60;5.57;;;;;;;;;;4991018;28;20065;-84
2022/05/11 04:44:52;;;;;;;14.90;6.13;;;;;;;;;;4990822;28;20042;-83
2022/05/11 04:47:19;;;;;;;11.70;5.20;;;;;;;;;;4989344;28;21841;-81
2022/05/11 04:49:45;;;;;;;9.65;5.13;;;;;;;;;;4997204;28;20246;-81
2022/05/11 04:52:15;;;;;;;13.88;5.28;;;;;;;;;;5016338;28;20063;-81
2022/05/11 04:54:43;;;;;;;11.80;5.35;;;;;;;;;;5010213;28;20037;-81
2022/05/11 04:57:10;;;;;;;13.15;4.68;;;;;;;;;;5008689;28;20038;-81
2022/05/11 04:59:36;;;;;;;13.40;4.80;;;;;;;;;;5009428;28;20042;-81
2022/05/11 05:02:04;;;;;;;11.02;4.70;;;;;;;;;;4993251;28;20469;-81
2022/05/11 05:04:31;;;;;;;10.73;4.40;;;;;;;;;;5008659;28;20045;-81
2022/05/11 05:06:57;;;;;;;12.80;4.90;;;;;;;;;;5008504;28;20049;-81
2022/05/11 05:09:24;;;;;;;13.27;4.85;;;;;;;;;;5008180;28;20033;-81
2022/05/11 05:11:50;;;;;;;8.90;4.70;;;;;;;;;;5008061;28;20144;-81
2022/05/11 05:14:16;;;;;;;12.20;4.80;;;;;;;;;;5008146;28;20120;-82
2022/05/11 05:16:43;;;;;;;10.13;4.60;;;;;;;;;;5008878;28;20398;-82
2022/05/11 05:19:09;;;;;;;11.75;4.80;;;;;;;;;;5008257;28;20147;-81
2022/05/11 05:21:35;;;;;;;13.98;5.00;;;;;;;;;;5007906;28;20041;-82
2022/05/11 05:24:02;;;;;;;12.20;4.90;;;;;;;;;;5008419;28;20053;-82
2022/05/11 05:26:28;;;;;;;11.20;4.97;;;;;;;;;;5009842;28;20474;-81
2022/05/11 05:31:39;;;;;;;12.15;4.65;;;;;;;;;;5006598;28;20085;-81
2022/05/11 05:34:05;;;;;;;13.07;5.00;;;;;;;;;;5009435;28;20045;-81
2022/05/11 05:36:35;;;;;;;9.75;4.72;;;;;;;;;;4989212;28;20394;-81
2022/05/11 05:39:02;;;;;;;15.07;5.32;;;;;;;;;;5007570;28;20437;-81
2022/05/11 05:41:29;;;;;;;15.32;5.35;;;;;;;;;;4991133;28;20045;-82
2022/05/11 05:43:55;;;;;;;16.50;5.00;;;;;;;;;;4991502;28;20041;-80
2022/05/11 05:46:22;;;;;;;16.63;5.15;;;;;;;;;;5007397;28;20045;-81
2022/05/11 05:48:48;;;;;;;10.43;4.78;;;;;;;;;;5008211;28;20046;-81
2022/05/11 05:51:16;;;;;;;11.50;4.60;;;;;;;;;;4990448;28;20038;-81
2022/05/11 05:53:43;;;;;;;11.27;4.95;;;;;;;;;;5006696;28;20042;-82
2022/05/11 05:56:09;;;;;;;10.18;4.88;;;;;;;;;;5008034;28;20038;-81
2022/05/11 05:58:36;;;;;;;11.02;4.93;;;;;;;;;;5008710;28;20048;-81
2022/05/11 06:01:03;;;;;;;13.85;4.80;;;;;;;;;;5009788;28;20061;-84
2022/05/11 06:03:30;;;;;;;11.45;4.60;;;;;;;;;;5007552;28;20622;-84
2022/05/11 06:05:56;;;;;;;11.70;4.35;;;;;;;;;;5006368;28;20490;-83
2022/05/11 06:08:23;;;;;;;14.20;4.55;;;;;;;;;;4991228;28;20046;-83
2022/05/11 06:10:50;;;;;;;11.35;4.30;;;;;;;;;;5007452;28;20367;-83
2022/05/11 06:13:20;;;;;;;11.32;4.25;;;;;;;;;;5007879;28;20410;-84
2022/05/11 06:15:46;;;;;;;11.30;4.13;;;;;;;;;;5005972;28;20120;-84
2022/05/11 06:18:13;;;;;;;8.25;4.60;;;;;;;;;;5007630;28;20042;-84
2022/05/11 06:20:39;;;;;;;11.68;4.53;;;;;;;;;;5007280;28;20046;-83
2022/05/11 06:23:06;;;;;;;11.43;4.18;;;;;;;;;;4991228;28;20041;-83
2022/05/11 06:25:33;;;;;;;11.57;4.07;;;;;;;;;;5007485;28;20046;-81
2022/05/11 06:28:00;;;;;;;11.25;4.53;;;;;;;;;;4990873;28;20045;-81
2022/05/11 06:30:27;;;;;;;15.43;4.38;;;;;;;;;;5006662;28;20478;-80
2022/05/11 06:32:53;;;;;;;12.68;4.00;;;;;;;;;;5007295;28;20045;-80
2022/05/11 06:35:20;;;;;;;12.70;4.13;;;;;;;;;;5006342;28;20055;-80
2022/05/11 06:37:46;;;;;;;12.38;4.05;;;;;;;;;;4989896;28;20077;-80
2022/05/11 06:40:13;;;;;;;12.85;3.83;;;;;;;;;;5005653;28;20406;-80
2022/05/11 06:42:39;;;;;;;11.55;3.80;;;;;;;;;;5007676;28;20061;-81
2022/05/11 06:45:06;;;;;;;9.15;3.35;;;;;;;;;;5006771;28;20460;-81
2022/05/11 06:47:33;;;;;;;9.48;2.65;;;;;;;;;;5004823;28;20531;-81
2022/05/11 06:50:00;;;;;;;8.80;2.88;;;;;;;;;;5007997;28;20073;-80
2022/05/11 06:52:26;;;;;;;10.07;2.60;;;;;;;;;;5006274;28;20065;-81
2022/05/11 07:00:22;;;;;;;10.53;2.27;;;;;;;;;;5008022;28;20038;-81
2022/05/11 07:02:48;;;;;;;9.35;2.28;;;;;;;;;;5010859;28;20304;-81
2022/05/11 07:05:14;;;;;;;10.00;2.75;;;;;;;;;;5010955;28;20092;-80
2022/05/11 07:07:41;;;;;;;9.23;2.22;;;;;;;;;;5012046;28;20045;-80
2022/05/11 07:10:08;;;;;;;11.15;2.40;;;;;;;;;;5028112;28;20029;-81
2022/05/11 07:12:38;;;;;;;15.38;3.45;;;;;;;;;;5011646;28;20508;-80
2022/05/11 07:15:09;;;;;;;10.90;2.35;;;;;;;;;;5011415;28;20543;-79
2022/05/11 07:17:38;;;;;;;9.02;2.13;;;;;;;;;;4994337;28;20128;-80
2022/05/11 07:20:09;;;;;;;10.50;2.20;;;;;;;;;;5012358;28;20049;-80
2022/05/11 07:22:35;;;;;;;11.40;2.72;;;;;;;;;;5010692;28;20125;-80
2022/05/11 07:25:01;;;;;;;10.32;2.10;;;;;;;;;;5027583;28;20038;-80
2022/05/11 07:27:27;;;;;;;11.18;2.45;;;;;;;;;;5011945;28;20030;-80
2022/05/11 07:29:54;;;;;;;8.93;2.00;;;;;;;;;;5010811;28;20053;-79
2022/05/11 07:32:23;;;;;;;7.97;2.40;;;;;;;;;;5010835;28;20143;-80
2022/05/11 07:34:49;;;;;;;11.07;2.70;;;;;;;;;;5012051;28;20065;-83
2022/05/11 07:37:15;;;;;;;7.40;2.47;;;;;;;;;;5010428;28;20038;-83
2022/05/11 07:39:41;;;;;;;11.02;2.15;;;;;;;;;;4994889;28;20478;-83
2022/05/11 07:42:08;;;;;;;10.35;2.67;;;;;;;;;;5011559;28;20117;-83
2022/05/11 07:44:34;;;;;;;8.65;2.25;;;;;;;;;;5010043;28;20034;-83
2022/05/11 07:47:01;;;;;;;10.43;2.22;;;;;;;;;;4994589;28;20053;-83
2022/05/11 07:49:27;;;;;;;9.30;2.17;;;;;;;;;;5010242;28;20057;-83
2022/05/11 07:51:53;;;;;;;7.95;2.05;;;;;;;;;;5010590;28;20084;-84
2022/05/11 07:54:20;;;;;;;10.60;2.50;;;;;;;;;;5010273;28;20042;-84
2022/05/11 08:02:16;;;;;;;7.57;1.95;;;;;;;;;;5009543;28;20146;-82
2022/05/11 08:04:42;;;;;;;14.65;2.25;;;;;;;;;;5010505;28;20116;-83
2022/05/11 08:07:09;;;;;;;11.95;2.30;;;;;;;;;;5010639;28;20485;-84
2022/05/11 08:09:35;;;;;;;12.18;2.40;;;;;;;;;;5009378;28;20034;-83
2022/05/11 08:12:01;;;;;;;12.35;2.42;;;;;;;;;;5010686;28;20045;-83
2022/05/11 08:14:27;;;;;;;11.48;2.35;;;;;;;;;;5010090;28;20113;-83
2022/05/11 08:16:54;;;;;;;12.63;2.40;;;;;;;;;;5011550;28;20030;-83
2022/05/11 08:19:24;;;;;;;11.05;2.58;;;;;;;;;;5011017;28;20049;-83
2022/05/11 08:21:51;;;;;;;12.52;2.58;;;;;;;;;;5010056;28;20042;-83
2022/05/11 08:24:17;;;;;;;11.73;2.60;;;;;;;;;;5026449;28;20045;-83
2022/05/11 08:26:46;;;;;;;10.55;2.40;;;;;;;;;;5010602;28;20068;-82
2022/05/11 08:33:18;;;;;;;11.90;2.20;;;;;;;;;;5009774;28;20046;-83
2022/05/11 08:34:43;;;;;;;10.75;2.33;;;;;;;;;;5010215;28;20042;-83
2022/05/11 08:37:09;;;;;;;12.10;2.85;;;;;;;;;;5011166;28;20093;-83
2022/05/11 08:39:36;;;;;;;13.07;2.53;;;;;;;;;;5009636;28;20141;-83
2022/05/11 08:42:02;;;;;;;14.10;2.60;;;;;;;;;;5009700;28;20088;-84
2022/05/11 08:44:34;;;;;;;7.95;1.92;;;;;;;;;;5009512;28;20044;-84
2022/05/11 08:47:09;;;;;;;10.65;2.20;;;;;;;;;;5009774;28;20413;-83
2022/05/11 08:49:35;;;;;;;16.83;2.65;;;;;;;;;;5009052;28;20108;-84
2022/05/11 08:52:04;;;;;;;13.27;2.67;;;;;;;;;;5009083;28;20042;-84
2022/05/11 08:54:47;;;;;;;12.73;2.88;;;;;;;;;;5008952;28;20041;-84
2022/05/11 08:57:17;;;;;;;15.52;2.75;;;;;;;;;;5009135;28;20068;-83
2022/05/11 08:59:43;;;;;;;12.88;2.40;;;;;;;;;;5010122;28;20045;-84
2022/05/11 09:02:23;;;;;;;15.13;2.90;;;;;;;;;;5009487;28;20052;-84
2022/05/11 09:04:54;;;;;;;14.13;3.47;;;;;;;;;;5010965;28;20045;-84
2022/05/11 09:07:21;;;;;;;11.13;2.50;;;;;;;;;;5008838;28;20128;-83
2022/05/11 09:09:47;;;;;;;12.65;2.35;;;;;;;;;;5009729;28;20040;-84
2022/05/11 09:12:13;;;;;;;13.35;2.67;;;;;;;;;;5009080;28;20595;-84
2022/05/11 09:14:49;;;;;;;10.27;2.15;;;;;;;;;;4992945;28;20056;-84
2022/05/11 09:17:15;;;;;;;;;;;;;;;;;;5009318;28;20184;-82
2022/05/11 09:19:41;;;;;;;12.05;2.40;;;;;;;;;;5009299;28;20492;-80
2022/05/11 09:22:07;;;;;;;10.15;2.53;;;;;;;;;;5008781;28;20525;-81
2022/05/11 09:24:56;;;;;;;14.90;2.75;;;;;;;;;;5008513;28;20124;-81
2022/05/11 09:27:22;;;;;;;10.73;2.50;;;;;;;;;;5009316;28;20238;-80
2022/05/11 09:29:57;;;;;;;9.98;2.30;;;;;;;;;;5009004;28;20038;-81
2022/05/11 09:32:32;;;;;;;13.40;3.03;;;;;;;;;;5009148;28;20096;-81
2022/05/11 09:35:19;;;;;;;14.43;2.40;;;;;;;;;;5009142;28;20088;-80
2022/05/11 09:37:52;;;;;;;13.23;2.50;;;;;;;;;;5005036;28;20104;-80
2022/05/11 09:40:22;;;;;;;13.77;2.40;;;;;;;;;;5008870;28;20081;-80
2022/05/11 09:42:51;;;;;;;13.00;2.78;;;;;;;;;;5009672;28;20513;-81
2022/05/11 09:45:38;;;;;;;12.82;2.72;;;;;;;;;;5009735;28;20091;-80
2022/05/11 09:48:12;;;;;;;9.93;2.42;;;;;;;;;;5009213;28;20773;-80
2022/05/11 09:50:39;;;;;;;10.80;2.63;;;;;;;;;;5009028;28;20058;-80
2022/05/11 09:53:11;;;;;;;13.93;2.72;;;;;;;;;;5008330;28;20054;-80
2022/05/11 09:55:37;;;;;;;14.48;2.42;;;;;;;;;;5009605;28;20033;-79
2022/05/11 09:58:08;;;;;;;11.35;2.40;;;;;;;;;;5009516;28;20053;-79
2022/05/11 10:00:42;;;;;;;9.10;2.40;;;;;;;;;;5007651;28;20049;-80
2022/05/11 10:03:11;;;;;;;14.47;2.10;;;;;;;;;;5008358;28;20064;-79
2022/05/11 10:05:42;;;;;;;7.78;1.80;;;;;;;;;;5007847;28;20124;-80
2022/05/11 10:08:08;;;;;;;10.27;2.50;;;;;;;;;;5008950;28;20068;-79
2022/05/11 10:10:45;;;;;;;11.60;1.98;;;;;;;;;;5007336;28;20124;-81
2022/05/11 10:13:15;;;;;;;15.82;2.25;;;;;;;;;;5008241;28;20077;-81
2022/05/11 10:24:17;;;;;;;10.40;2.15;;;;;;;;;;5008837;28;19925;-81
2022/05/11 10:26:49;;;;;;;9.85;1.90;;;;;;;;;;5008227;28;20037;-82
2022/05/11 10:29:21;;;;;;;8.57;2.30;;;;;;;;;;4990774;28;20100;-80
2022/05/11 10:31:57;;;;;;;10.98;1.77;;;;;;;;;;4991891;28;20498;-81
2022/05/11 10:34:29;;;;;;;8.65;1.95;;;;;;;;;;5009137;28;20049;-81
2022/05/11 10:37:09;;;;;;;11.18;1.98;;;;;;;;;;4995359;28;20104;-81
2022/05/11 10:39:35;;;;;;;7.13;1.88;;;;;;;;;;5011614;28;20030;-80
2022/05/11 10:42:01;;;;;;;8.95;2.00;;;;;;;;;;5011873;28;20054;-80
2022/05/11 10:44:33;;;;;;;10.02;1.88;;;;;;;;;;5011084;28;20038;-81
2022/05/11 10:47:18;;;;;;;13.18;2.45;;;;;;;;;;5012001;28;20132;-81
2022/05/11 10:49:44;;;;;;;7.87;1.80;;;;;;;;;;5011292;28;20065;-79
2022/05/11 10:52:16;;;;;;;8.63;1.77;;;;;;;;;;4995263;28;20289;-81
2022/05/11 10:54:51;;;;;;;6.95;1.60;;;;;;;;;;5011422;28;20045;-81
2022/05/11 10:57:24;;;;;;;10.35;2.05;;;;;;;;;;5011215;28;20103;-81
2022/05/11 10:59:56;;;;;;;8.27;1.80;;;;;;;;;;5011406;28;20089;-81
2022/05/11 11:02:41;;;;;;;12.43;2.30;;;;;;;;;;5011015;28;20096;-81
2022/05/11 11:05:26;;;;;;;8.45;1.65;;;;;;;;;;4995205;28;20037;-81
2022/05/11 11:07:52;;;;;;;7.78;1.60;;;;;;;;;;5012903;28;20537;-81
2022/05/11 11:10:29;;;;;;;7.57;1.65;;;;;;;;;;5011097;28;20096;-84
2022/05/11 11:12:58;;;;;;;7.30;1.60;;;;;;;;;;5014001;28;20045;-85
2022/05/11 11:15:26;;;;;;;6.88;1.30;;;;;;;;;;5012108;28;20095;-85
2022/05/11 11:17:54;;;;;;;7.53;1.73;;;;;;;;;;5011934;28;20081;-84
2022/05/11 11:20:20;;;;;;;9.90;1.60;;;;;;;;;;5012653;28;20050;-85
2022/05/11 11:23:02;;;;;;;7.75;1.58;;;;;;;;;;4995853;28;20426;-85
2022/05/11 11:25:38;;;;;;;7.40;1.40;;;;;;;;;;5026260;28;20394;-84
2022/05/11 11:28:10;;;;;;;8.00;1.80;;;;;;;;;;5011879;28;20505;-86
2022/05/11 11:30:37;;;;;;;8.77;2.05;;;;;;;;;;5011598;28;20397;-85
2022/05/11 11:33:23;;;;;;;9.27;1.92;;;;;;;;;;5011681;28;20379;-85
2022/05/11 11:35:57;;;;;;;8.68;1.67;;;;;;;;;;5012779;28;20056;-84
2022/05/11 11:38:41;;;;;;;7.13;1.70;;;;;;;;;;4993125;28;20038;-85
2022/05/11 11:41:12;;;;;;;11.68;2.45;;;;;;;;;;5012277;28;20042;-85
2022/05/11 11:43:43;;;;;;;10.68;1.70;;;;;;;;;;5010890;28;20375;-85
2022/05/11 11:46:09;;;;;;;11.45;2.15;;;;;;;;;;5010204;28;20038;-84
2022/05/11 11:48:38;;;;;;;13.73;2.58;;;;;;;;;;5010376;28;20057;-85
2022/05/11 11:51:11;;;;;;;10.48;1.80;;;;;;;;;;5010484;28;20121;-86
2022/05/11 11:53:53;;;;;;;11.98;2.28;;;;;;;;;;5010761;28;20474;-84
2022/05/11 11:56:28;;;;;;;10.48;2.10;;;;;;;;;;5025682;28;20397;-85
2022/05/11 11:59:04;;;;;;;9.70;1.83;;;;;;;;;;5011712;28;20034;-85
2022/05/11 12:01:33;;;;;;;13.43;2.28;;;;;;;;;;5010523;28;20045;-84
2022/05/11 12:04:07;;;;;;;9.73;1.95;;;;;;;;;;5010693;28;20045;-84
2022/05/11 12:15:03;;;;;;;11.57;2.45;;;;;;;;;;5009915;28;20448;-85
2022/05/11 12:17:37;;;;;;;9.13;1.98;;;;;;;;;;5025466;28;20131;-84
2022/05/11 12:20:14;;;;;;;11.02;2.25;;;;;;;;;;5027367;28;20076;-84
2022/05/11 12:22:41;;;;;;;8.80;2.03;;;;;;;;;;5011851;28;20046;-85
2022/05/11 12:25:20;;;;;;;16.10;1.95;;;;;;;;;;5010998;28;20469;-85
2022/05/11 12:27:47;;;;;;;11.68;2.13;;;;;;;;;;5025394;28;20042;-84
2022/05/11 12:30:22;;;;;;;11.10;2.30;;;;;;;;;;5010051;28;20073;-85
2022/05/11 12:32:59;;;;;;;7.97;1.90;;;;;;;;;;5010532;28;20397;-86
2022/05/11 12:35:31;;;;;;;12.50;2.00;;;;;;;;;;5009897;28;20049;-85
2022/05/11 12:38:08;;;;;;;14.75;2.15;;;;;;;;;;5010414;28;20056;-85
2022/05/11 12:40:43;;;;;;;13.02;2.03;;;;;;;;;;5010024;28;20071;-88
2022/05/11 12:43:18;;;;;;;10.45;1.92;;;;;;;;;;5010344;28;20029;-84
2022/05/11 12:45:46;;;;;;;18.23;2.72;;;;;;;;;;5007249;28;20053;-85
2022/05/11 12:48:38;;;;;;;8.85;2.05;;;;;;;;;;5009674;28;20103;-84
2022/05/11 12:51:10;;;;;;;13.75;2.20;;;;;;;;;;5008433;28;20080;-84
2022/05/11 12:53:47;;;;;;;15.65;2.65;;;;;;;;;;5010100;28;20077;-84
2022/05/11 12:56:13;;;;;;;7.53;1.70;;;;;;;;;;5026429;28;20049;-85
2022/05/11 12:58:45;;;;;;;20.05;2.28;;;;;;;;;;5009866;28;20053;-85
2022/05/11 13:01:12;;;;;;;13.00;2.10;;;;;;;;;;5009626;28;20073;-85
2022/05/11 13:03:38;;;;;;;10.85;2.00;;;;;;;;;;4993307;28;20045;-85
2022/05/11 13:06:06;;;;;;;12.15;2.20;;;;;;;;;;5009806;28;20046;-85
2022/05/11 13:08:37;;;;;;;11.80;2.00;;;;;;;;;;5009324;28;20049;-85
2022/05/11 13:11:05;;;;;;;15.90;2.47;;;;;;;;;;5010867;28;20042;-85
2022/05/11 13:13:31;;;;;;;23.30;3.35;;;;;;;;;;5010496;28;20041;-84
2022/05/11 13:16:18;;;;;;;14.00;2.20;;;;;;;;;;5009811;28;20502;-85
2022/05/11 13:18:45;;;;;;;14.35;2.13;;;;;;;;;;5007848;28;20132;-85
2022/05/11 13:21:11;;;;;;;11.50;1.80;;;;;;;;;;5009723;28;20052;-85
2022/05/11 13:23:40;;;;;;;13.70;1.90;;;;;;;;;;5009414;28;20818;-85
2022/05/11 13:26:11;;;;;;;13.75;2.22;;;;;;;;;;5009503;28;20064;-84
2022/05/11 13:28:41;;;;;;;14.95;2.15;;;;;;;;;;5010081;28;20135;-86
2022/05/11 13:31:27;;;;;;;11.43;2.17;;;;;;;;;;5009470;28;20045;-86
2022/05/11 13:33:54;;;;;;;19.20;2.85;;;;;;;;;;5010790;28;20128;-85
2022/05/11 13:36:23;;;;;;;10.02;2.10;;;;;;;;;;5008601;28;20080;-85
2022/05/11 13:39:03;;;;;;;12.93;2.08;;;;;;;;;;5008437;28;20034;-85
2022/05/11 13:41:30;;;;;;;9.02;2.08;;;;;;;;;;5025054;28;20042;-86
2022/05/11 13:44:01;;;;;;;13.05;2.10;;;;;;;;;;5009684;28;20520;-85
2022/05/11 13:46:35;;;;;;;9.35;2.08;;;;;;;;;;5008975;28;20372;-84
2022/05/11 13:49:20;;;;;;;10.18;1.73;;;;;;;;;;5009694;28;20112;-85
2022/05/11 13:51:46;;;;;;;8.98;1.67;;;;;;;;;;5022027;28;20045;-86
2022/05/11 13:54:24;;;;;;;10.27;1.95;;;;;;;;;;5008564;28;20501;-81
2022/05/11 13:57:07;;;;;;;12.45;2.10;;;;;;;;;;5008226;28;20080;-81
2022/05/11 13:59:44;;;;;;;13.30;1.92;;;;;;;;;;5007805;28;20041;-81
2022/05/11 14:02:11;;;;;;;11.65;1.67;;;;;;;;;;5008307;28;20046;-81
2022/05/11 14:04:38;;;;;;;10.13;1.50;;;;;;;;;;5008031;28;20042;-81
2022/05/11 14:07:04;;;;;;;9.45;1.70;;;;;;;;;;5008248;28;20086;-81
2022/05/11 14:09:34;;;;;;;8.52;1.70;;;;;;;;;;5006947;28;20050;-81
2022/05/11 14:12:01;;;;;;;9.63;1.90;;;;;;;;;;5006490;28;20041;-80
2022/05/11 14:14:27;;;;;;;9.45;1.92;;;;;;;;;;5007897;28;20045;-81
2022/05/11 14:16:53;;;;;;;8.32;1.60;;;;;;;;;;5008300;28;20041;-81
2022/05/11 14:19:21;;;;;;;7.40;1.88;;;;;;;;;;5008768;28;20057;-82
2022/05/11 14:21:47;;;;;;;6.95;1.45;;;;;;;;;;5008155;28;20037;-81
2022/05/11 14:24:15;;;;;;;6.47;1.63;;;;;;;;;;5008019;28;20285;-81
2022/05/11 14:26:42;;;;;;;6.88;1.52;;;;;;;;;;5008092;28;20176;-82
2022/05/11 14:29:09;;;;;;;8.77;1.70;;;;;;;;;;5008202;28;20046;-80
2022/05/11 14:31:35;;;;;;;6.53;1.23;;;;;;;;;;5008029;28;20421;-81
2022/05/11 14:34:01;;;;;;;7.40;1.45;;;;;;;;;;5007567;28;20042;-82
2022/05/11 14:36:27;;;;;;;7.43;1.27;;;;;;;;;;5007050;28;20045;-86
2022/05/11 14:38:53;;;;;;;9.68;1.38;;;;;;;;;;5008779;28;20504;-86
2022/05/11 14:41:21;;;;;;;7.75;1.38;;;;;;;;;;5008149;28;20237;-85
2022/05/11 14:43:47;;;;;;;5.47;1.20;;;;;;;;;;5008547;28;20523;-85
2022/05/11 14:46:25;;;;;;;5.35;1.30;;;;;;;;;;5008305;28;20045;-85
2022/05/11 14:48:51;;;;;;;8.32;1.50;;;;;;;;;;4990135;28;20038;-85
2022/05/11 14:51:18;;;;;;;5.97;1.40;;;;;;;;;;5008123;28;20564;-85
2022/05/11 14:53:45;;;;;;;4.13;1.23;;;;;;;;;;4992476;28;20524;-84
2022/05/11 14:56:12;;;;;;;7.38;1.40;;;;;;;;;;4989807;28;20127;-85
2022/05/11 15:04:20;;;;;;;6.68;1.30;;;;;;;;;;5008224;28;20046;-85
2022/05/11 15:06:46;;;;;;;8.02;1.42;;;;;;;;;;5004029;28;20049;-84
2022/05/11 15:09:12;;;;;;;6.03;1.30;;;;;;;;;;5008625;28;20042;-85
2022/05/11 15:14:30;;;;;;;8.95;1.70;;;;;;;;;;5005647;28;20042;-84
2022/05/11 15:16:58;;;;;;;7.13;1.35;;;;;;;;;;5008310;28;20050;-85
2022/05/11 15:19:24;;;;;;;5.75;1.25;;;;;;;;;;4991686;28;20042;-84
2022/05/11 15:21:50;;;;;;;7.20;1.50;;;;;;;;;;4994286;28;20494;-85
2022/05/11 15:24:16;;;;;;;9.63;1.90;;;;;;;;;;5011338;28;20033;-84
2022/05/11 15:26:43;;;;;;;8.50;1.88;;;;;;;;;;5011869;28;20145;-85
2022/05/11 15:29:09;;;;;;;7.38;1.58;;;;;;;;;;5011498;28;20042;-85
2022/05/11 15:31:35;;;;;;;8.85;1.50;;;;;;;;;;5027814;28;20084;-84
2022/05/11 15:34:03;;;;;;;6.07;1.70;;;;;;;;;;5011216;28;20041;-84